createdAt,value
2019-05-26T00:01:01.035Z,3.90
2019-05-26T00:06:00.691Z,3.50
2019-05-26T00:11:00.311Z,2.80
2019-05-26T00:15:59.991Z,3.77
2019-05-26T00:20:59.646Z,3.63
2019-05-26T00:25:59.284Z,4.43
2019-05-26T00:30:59.302Z,2.50
2019-05-26T00:35:59.041Z,3.97
2019-05-26T00:40:59.030Z,3.87
2019-05-26T00:45:58.720Z,5.90
2019-05-26T00:50:58.391Z,3.43
2019-05-26T00:55:58.131Z,5.53
2019-05-26T01:00:57.847Z,4.70
2019-05-26T01:05:57.655Z,5.80
2019-05-26T01:11:01.135Z,4.37
2019-05-26T01:15:58.739Z,8.03
2019-05-26T01:20:58.762Z,4.20
2019-05-26T01:25:58.667Z,5.07
2019-05-26T01:30:58.297Z,7.33
2019-05-26T01:35:58.178Z,5.30
2019-05-26T01:40:57.928Z,5.30
2019-05-26T01:45:57.907Z,6.00
2019-05-26T01:50:57.945Z,5.73
2019-05-26T01:55:57.590Z,4.03
2019-05-26T02:00:57.224Z,5.63
2019-05-26T02:05:56.917Z,4.63
2019-05-26T02:10:56.599Z,3.50
2019-05-26T02:15:57.064Z,3.47
2019-05-26T02:20:56.740Z,3.90
2019-05-26T02:25:56.418Z,6.40
2019-05-26T02:30:56.059Z,4.57
2019-05-26T02:35:55.697Z,7.00
2019-05-26T02:40:55.352Z,5.30
2019-05-26T02:45:55.327Z,4.87
2019-05-26T02:50:54.998Z,8.77
2019-05-26T02:55:54.799Z,3.57
2019-05-26T03:00:54.527Z,3.27
2019-05-26T03:05:55.237Z,4.93
2019-05-26T03:10:57.019Z,6.43
2019-05-26T03:15:58.867Z,3.30
2019-05-26T03:21:00.045Z,4.57
2019-05-26T03:26:00.774Z,3.97
2019-05-26T03:31:00.476Z,4.90
2019-05-26T03:36:01.274Z,2.97
2019-05-26T03:41:01.172Z,4.00
2019-05-26T03:46:20.710Z,3.77
2019-05-26T03:51:21.628Z,3.77
2019-05-26T03:56:21.389Z,5.60
2019-05-26T04:01:21.116Z,6.27
2019-05-26T04:06:20.808Z,4.67
2019-05-26T04:11:20.469Z,4.73
2019-05-26T04:16:20.194Z,5.30
2019-05-26T04:21:19.868Z,6.43
2019-05-26T04:26:19.521Z,5.00
2019-05-26T04:31:19.184Z,8.30
2019-05-26T04:36:19.172Z,4.50
2019-05-26T04:41:18.876Z,5.43
2019-05-26T04:46:18.660Z,4.70
2019-05-26T04:51:18.306Z,11.80
2019-05-26T04:56:18.347Z,4.00
2019-05-26T05:01:18.325Z,6.17
2019-05-26T05:06:17.987Z,5.57
2019-05-26T05:11:17.635Z,4.33
2019-05-26T05:16:17.387Z,4.77
2019-05-26T05:21:17.117Z,5.60
2019-05-26T05:26:17.066Z,4.87
2019-05-26T05:31:16.800Z,3.33
2019-05-26T05:36:16.608Z,5.63
2019-05-26T05:41:16.350Z,5.50
2019-05-26T05:46:16.259Z,3.87
2019-05-26T05:51:16.227Z,2.97
2019-05-26T05:56:15.941Z,5.80
2019-05-26T06:01:15.623Z,9.00
2019-05-26T06:06:16.277Z,4.80
2019-05-26T06:11:17.262Z,5.20
2019-05-26T06:16:17.447Z,3.80
2019-05-26T06:21:17.750Z,3.60
2019-05-26T06:26:17.829Z,3.33
2019-05-26T06:31:18.467Z,4.80
2019-05-26T06:36:18.171Z,5.60
2019-05-26T06:41:32.343Z,3.63
2019-05-26T06:46:19.520Z,10.33
2019-05-26T06:51:19.603Z,5.07
2019-05-26T06:56:19.249Z,3.00
2019-05-26T07:01:19.267Z,5.17
2019-05-26T07:06:18.971Z,4.63
2019-05-26T07:11:18.725Z,3.20
2019-05-26T07:16:18.712Z,4.30
2019-05-26T07:21:18.403Z,3.60
2019-05-26T07:26:18.050Z,4.93
2019-05-26T07:31:17.704Z,2.73
2019-05-26T07:36:17.355Z,4.53
2019-05-26T07:41:17.012Z,5.33
2019-05-26T07:46:16.700Z,3.00
2019-05-26T07:51:35.597Z,5.17
2019-05-26T07:56:35.339Z,3.60
2019-05-26T08:01:36.499Z,3.40
2019-05-26T08:06:36.385Z,3.40
2019-05-26T08:11:36.021Z,8.80
2019-05-26T08:16:35.778Z,5.93
2019-05-26T08:21:35.517Z,4.63
2019-05-26T08:26:35.470Z,4.27
2019-05-26T08:31:35.203Z,3.40
2019-05-26T08:36:35.126Z,3.47
2019-05-26T08:41:34.790Z,5.73
2019-05-26T08:46:34.843Z,6.20
2019-05-26T08:51:34.579Z,7.40
2019-05-26T08:56:34.512Z,4.80
2019-05-26T09:01:34.289Z,3.27
2019-05-26T09:06:33.951Z,3.53
2019-05-26T09:11:33.596Z,3.80
2019-05-26T09:16:33.239Z,3.97
2019-05-26T09:21:32.975Z,2.67
2019-05-26T09:26:32.671Z,3.57
2019-05-26T09:31:34.208Z,3.63
2019-05-26T09:36:33.714Z,3.40
2019-05-26T09:41:33.448Z,2.13
2019-05-26T09:46:33.290Z,2.07
2019-05-26T09:51:32.947Z,2.63
2019-05-26T09:56:33.168Z,2.87
2019-05-26T10:01:32.935Z,2.77
2019-05-26T10:06:32.683Z,1.83
2019-05-26T10:11:32.354Z,3.53
2019-05-26T10:16:32.103Z,3.00
2019-05-26T10:21:31.747Z,2.07
2019-05-26T10:26:31.444Z,4.90
2019-05-26T10:31:31.384Z,2.23
2019-05-26T10:36:31.102Z,2.50
2019-05-26T10:41:30.767Z,6.00
2019-05-26T10:46:30.770Z,3.53
2019-05-26T10:51:30.433Z,2.90
2019-05-26T10:56:30.619Z,3.67
2019-05-26T11:01:30.344Z,4.77
2019-05-26T11:06:29.988Z,5.23
2019-05-26T11:11:29.959Z,3.00
2019-05-26T11:16:29.651Z,3.57
2019-05-26T11:21:29.529Z,6.73
2019-05-26T11:26:29.420Z,2.87
2019-05-26T11:31:29.083Z,3.30
2019-05-26T11:36:28.759Z,9.10
2019-05-26T11:41:28.510Z,5.33
2019-05-26T11:46:28.603Z,3.77
2019-05-26T11:51:28.304Z,3.57
2019-05-26T11:56:27.937Z,4.33
2019-05-26T12:01:27.915Z,4.17
2019-05-26T12:06:27.575Z,6.03
2019-05-26T12:11:27.898Z,3.20
2019-05-26T12:16:28.965Z,3.50
2019-05-26T12:21:28.740Z,5.50
2019-05-26T12:26:28.410Z,6.93
2019-05-26T12:31:28.072Z,2.80
2019-05-26T12:36:27.700Z,3.83
2019-05-26T12:41:27.387Z,2.87
2019-05-26T12:46:27.032Z,2.60
2019-05-26T12:51:26.859Z,3.60
2019-05-26T12:56:26.981Z,4.73
2019-05-26T13:01:26.898Z,3.30
2019-05-26T13:06:26.632Z,2.93
2019-05-26T13:11:26.272Z,3.30
2019-05-26T13:16:25.919Z,3.50
2019-05-26T13:21:25.567Z,2.83
2019-05-26T13:26:25.315Z,5.80
2019-05-26T13:31:24.979Z,1.70
2019-05-26T13:36:24.608Z,4.30
2019-05-26T13:41:24.513Z,4.73
2019-05-26T13:46:24.464Z,2.60
2019-05-26T13:51:24.100Z,2.40
2019-05-26T13:56:23.793Z,3.37
2019-05-26T14:01:23.730Z,3.87
2019-05-26T14:06:23.438Z,2.67
2019-05-26T14:11:23.185Z,3.43
2019-05-26T14:16:23.881Z,4.30
2019-05-26T14:21:23.531Z,3.57
2019-05-26T14:26:23.223Z,2.73
2019-05-26T14:31:23.164Z,3.70
2019-05-26T14:36:23.367Z,2.30
2019-05-26T14:41:23.032Z,3.57
2019-05-26T14:46:22.672Z,4.90
2019-05-26T14:51:22.333Z,2.70
2019-05-26T14:56:22.028Z,2.43
2019-05-26T15:01:21.675Z,2.60
2019-05-26T15:06:21.331Z,2.43
2019-05-26T15:11:20.967Z,2.73
2019-05-26T15:16:21.030Z,3.50
2019-05-26T15:21:20.688Z,6.03
2019-05-26T15:26:20.331Z,2.30
2019-05-26T15:31:19.999Z,3.07
2019-05-26T15:36:19.639Z,3.50
2019-05-26T15:41:19.307Z,2.50
2019-05-26T15:46:25.215Z,3.00
2019-05-26T15:51:20.390Z,3.00
2019-05-26T15:56:20.028Z,3.53
2019-05-26T16:01:19.743Z,2.87
2019-05-26T16:06:19.441Z,3.47
2019-05-26T16:11:19.109Z,3.00
2019-05-26T16:16:19.370Z,3.10
2019-05-26T16:21:28.005Z,2.87
2019-05-26T16:26:20.698Z,2.53
2019-05-26T16:31:20.525Z,3.00
2019-05-26T16:36:21.697Z,2.90
2019-05-26T16:41:21.541Z,2.93
2019-05-26T16:46:21.224Z,2.90
2019-05-26T16:51:21.207Z,3.10
2019-05-26T16:56:20.968Z,2.30
2019-05-26T17:01:20.716Z,3.10
2019-05-26T17:06:20.366Z,2.67
2019-05-26T17:11:20.049Z,2.70
2019-05-26T17:16:19.725Z,2.33
2019-05-26T17:21:19.362Z,2.63
2019-05-26T17:26:19.180Z,3.40
2019-05-26T17:31:18.920Z,3.50
2019-05-26T17:36:18.680Z,3.43
2019-05-26T17:41:18.422Z,3.10
2019-05-26T17:46:18.464Z,3.57
2019-05-26T17:51:18.256Z,3.07
2019-05-26T17:56:17.904Z,3.63
2019-05-26T18:01:17.596Z,3.73
2019-05-26T18:06:17.327Z,6.63
2019-05-26T18:11:16.959Z,3.37
2019-05-26T18:16:16.912Z,3.67
2019-05-26T18:21:16.563Z,6.90
2019-05-26T18:26:16.579Z,4.07
2019-05-26T18:31:16.207Z,6.03
2019-05-26T18:36:16.147Z,5.90
2019-05-26T18:41:15.919Z,6.90
2019-05-26T18:46:15.920Z,4.40
2019-05-26T18:51:15.622Z,5.97
2019-05-26T18:56:15.328Z,8.17
2019-05-26T19:01:15.177Z,5.47
2019-05-26T19:06:14.935Z,5.70
2019-05-26T19:11:15.043Z,8.50
2019-05-26T19:16:14.763Z,6.50
2019-05-26T19:21:14.585Z,6.47
2019-05-26T19:26:33.455Z,7.20
2019-05-26T19:31:34.274Z,5.93
2019-05-26T19:36:33.928Z,7.23
2019-05-26T19:41:45.792Z,8.03
2019-05-26T19:46:45.844Z,7.43
2019-05-26T19:51:45.532Z,9.83
2019-05-26T19:56:45.204Z,8.60
2019-05-26T20:01:45.034Z,9.60
2019-05-26T20:06:44.676Z,8.00
2019-05-26T20:11:44.439Z,7.60
2019-05-26T20:16:44.081Z,8.90
2019-05-26T20:21:43.791Z,7.50
2019-05-26T20:26:43.538Z,7.50
2019-05-26T20:31:43.859Z,8.00
2019-05-26T20:36:43.845Z,7.87
2019-05-26T20:41:43.508Z,8.87
2019-05-26T20:46:43.583Z,6.90
2019-05-26T20:51:43.588Z,10.23
2019-05-26T20:56:43.298Z,14.03
2019-05-26T21:01:43.021Z,6.77
2019-05-26T21:06:42.699Z,11.23
2019-05-26T21:11:42.424Z,7.37
2019-05-26T21:16:42.446Z,8.60
2019-05-26T21:21:42.715Z,14.73
2019-05-26T21:26:42.384Z,7.70
2019-05-26T21:31:42.051Z,9.57
2019-05-26T21:36:41.711Z,9.10
2019-05-26T21:41:41.363Z,10.73
2019-05-26T21:46:41.020Z,8.63
2019-05-26T21:51:40.645Z,10.70
2019-05-26T21:56:40.336Z,7.57
2019-05-26T22:01:39.991Z,10.10
2019-05-26T22:06:39.917Z,8.83
2019-05-26T22:11:40.010Z,8.30
2019-05-26T22:16:39.996Z,8.67
2019-05-26T22:21:40.163Z,8.23
2019-05-26T22:26:40.939Z,6.87
2019-05-26T22:31:41.020Z,9.53
2019-05-26T22:36:41.365Z,8.93
2019-05-26T22:41:41.078Z,10.63
2019-05-26T22:46:40.748Z,8.37
2019-05-26T22:51:40.403Z,9.33
2019-05-26T22:56:40.067Z,10.90
2019-05-26T23:01:39.689Z,8.90
2019-05-26T23:06:39.355Z,10.57
2019-05-26T23:11:39.026Z,12.33
2019-05-26T23:16:38.671Z,9.97
2019-05-26T23:21:38.299Z,11.40
2019-05-26T23:26:37.964Z,11.20
2019-05-26T23:31:37.627Z,14.47
2019-05-26T23:36:37.267Z,10.90
2019-05-26T23:41:36.980Z,14.40
2019-05-26T23:46:36.642Z,11.63
2019-05-26T23:51:36.293Z,11.83
2019-05-26T23:56:36.487Z,10.40
